createdAt,value
2023-02-20T00:00:54.503Z,5.30
2023-02-20T00:03:21.335Z,5.30
2023-02-20T00:05:48.066Z,6.00
2023-02-20T00:08:14.814Z,5.30
2023-02-20T00:10:41.726Z,5.30
2023-02-20T00:13:08.457Z,5.30
2023-02-20T00:15:35.171Z,5.30
2023-02-20T00:18:01.934Z,5.30
2023-02-20T00:20:30.313Z,5.30
2023-02-20T00:22:57.131Z,5.40
2023-02-20T00:25:23.811Z,5.30
2023-02-20T00:27:51.049Z,5.30
2023-02-20T00:30:23.496Z,5.30
2023-02-20T00:32:52.435Z,5.20
2023-02-20T00:35:20.073Z,5.30
2023-02-20T00:37:47.405Z,5.20
2023-02-20T00:40:16.064Z,5.20
2023-02-20T00:42:43.375Z,5.30
2023-02-20T00:45:11.687Z,5.20
2023-02-20T00:47:38.587Z,5.20
2023-02-20T00:50:06.857Z,5.20
2023-02-20T00:52:33.589Z,5.20
2023-02-20T00:55:00.250Z,5.20
2023-02-20T00:57:26.951Z,5.20
2023-02-20T00:59:53.637Z,5.20
2023-02-20T01:02:20.660Z,5.20
2023-02-20T01:04:47.435Z,5.20
2023-02-20T01:07:14.145Z,6.70
2023-02-20T01:09:40.840Z,5.20
2023-02-20T01:12:07.697Z,5.20
2023-02-20T01:14:35.531Z,5.20
2023-02-20T01:17:02.557Z,5.20
2023-02-20T01:19:29.897Z,5.30
2023-02-20T01:21:56.653Z,5.30
2023-02-20T01:24:23.488Z,5.20
2023-02-20T01:26:50.389Z,5.30
2023-02-20T01:29:17.901Z,5.30
2023-02-20T01:31:52.138Z,5.30
2023-02-20T01:34:20.601Z,5.30
2023-02-20T01:36:52.404Z,5.30
2023-02-20T01:39:21.369Z,5.20
2023-02-20T01:41:50.783Z,5.30
2023-02-20T01:44:23.991Z,5.30
2023-02-20T01:46:56.603Z,5.30
2023-02-20T01:49:32.768Z,5.30
2023-02-20T01:52:12.260Z,5.30
2023-02-20T01:54:42.359Z,5.40
2023-02-20T01:57:12.251Z,5.40
2023-02-20T01:59:40.266Z,5.30
2023-02-20T02:02:07.795Z,5.30
2023-02-20T02:04:37.052Z,5.40
2023-02-20T02:07:04.949Z,5.40
2023-02-20T02:09:56.091Z,5.40
2023-02-20T02:12:23.304Z,5.40
2023-02-20T02:14:50.008Z,5.40
2023-02-20T02:17:16.632Z,5.40
2023-02-20T02:20:19.762Z,5.40
2023-02-20T02:23:25.722Z,5.50
2023-02-20T02:26:16.720Z,5.50
2023-02-20T02:28:57.671Z,5.50
2023-02-20T02:31:41.512Z,5.60
2023-02-20T02:34:19.921Z,5.60
2023-02-20T02:37:16.701Z,5.60
2023-02-20T02:39:54.902Z,5.70
2023-02-20T02:42:48.857Z,5.70
2023-02-20T02:45:27.594Z,5.70
2023-02-20T02:48:01.426Z,5.70
2023-02-20T02:50:37.051Z,5.80
2023-02-20T02:53:09.501Z,5.80
2023-02-20T02:55:36.565Z,5.80
2023-02-20T02:58:05.173Z,5.80
2023-02-20T03:00:43.300Z,6.80
2023-02-20T03:03:27.077Z,5.90
2023-02-20T03:06:09.846Z,5.90
2023-02-20T03:08:43.604Z,5.90
2023-02-20T03:11:19.931Z,6.00
2023-02-20T03:14:12.695Z,6.00
2023-02-20T03:16:56.281Z,6.00
2023-02-20T03:19:30.051Z,6.10
2023-02-20T03:21:58.719Z,6.10
2023-02-20T03:24:28.774Z,6.10
2023-02-20T03:26:58.029Z,6.20
2023-02-20T03:29:35.345Z,7.60
2023-02-20T03:32:28.746Z,6.20
2023-02-20T03:35:16.182Z,6.30
2023-02-20T03:38:04.441Z,6.30
2023-02-20T03:40:51.408Z,7.40
2023-02-20T03:43:27.960Z,6.30
2023-02-20T03:46:02.522Z,6.40
2023-02-20T03:48:38.300Z,6.40
2023-02-20T03:51:05.357Z,7.90
2023-02-20T03:53:33.318Z,6.40
2023-02-20T03:56:05.461Z,6.50
2023-02-20T03:58:37.224Z,6.50
2023-02-20T04:01:06.228Z,6.50
2023-02-20T04:03:37.336Z,6.60
2023-02-20T04:06:06.314Z,6.60
2023-02-20T04:08:38.049Z,6.60
2023-02-20T04:11:21.815Z,6.70
2023-02-20T04:13:50.625Z,6.80
2023-02-20T04:16:17.892Z,6.80
2023-02-20T04:18:45.266Z,6.90
2023-02-20T04:21:32.993Z,6.90
2023-02-20T04:24:08.128Z,7.00
2023-02-20T04:26:36.090Z,7.10
2023-02-20T04:29:05.403Z,7.60
2023-02-20T04:31:32.251Z,7.20
2023-02-20T04:33:59.207Z,7.20
2023-02-20T04:36:26.600Z,7.20
2023-02-20T04:38:53.408Z,7.30
2023-02-20T04:41:20.185Z,7.30
2023-02-20T04:43:48.094Z,7.30
2023-02-20T04:46:15.356Z,7.30
2023-02-20T04:48:42.508Z,7.60
2023-02-20T04:51:09.467Z,7.40
2023-02-20T04:53:36.164Z,7.40
2023-02-20T04:56:02.842Z,7.40
2023-02-20T04:58:29.594Z,7.40
2023-02-20T05:00:56.288Z,7.50
2023-02-20T05:03:23.043Z,7.50
2023-02-20T05:05:49.707Z,7.50
2023-02-20T05:08:16.432Z,7.50
2023-02-20T05:10:43.189Z,7.50
2023-02-20T05:13:09.967Z,8.60
2023-02-20T05:15:36.672Z,7.50
2023-02-20T05:18:03.584Z,7.60
2023-02-20T05:20:50.531Z,7.60
2023-02-20T05:23:17.255Z,7.60
2023-02-20T05:25:44.062Z,8.40
2023-02-20T05:28:10.788Z,7.60
2023-02-20T05:30:37.608Z,7.60
2023-02-20T05:33:04.331Z,7.60
2023-02-20T05:35:31.053Z,7.60
2023-02-20T05:37:57.744Z,7.60
2023-02-20T05:40:24.396Z,7.70
2023-02-20T05:42:51.092Z,7.70
2023-02-20T05:45:17.806Z,7.70
2023-02-20T05:47:44.487Z,7.70
2023-02-20T05:50:11.439Z,7.70
2023-02-20T05:52:38.183Z,7.70
2023-02-20T05:55:05.114Z,7.70
2023-02-20T05:57:31.795Z,7.70
2023-02-20T05:59:58.497Z,7.70
2023-02-20T06:02:25.202Z,7.70
2023-02-20T06:04:51.954Z,7.70
2023-02-20T06:07:18.634Z,7.70
2023-02-20T06:09:45.381Z,9.30
2023-02-20T06:12:12.641Z,7.80
2023-02-20T06:14:39.550Z,7.80
2023-02-20T06:17:06.255Z,7.80
2023-02-20T06:19:33.064Z,7.90
2023-02-20T06:21:59.920Z,8.80
2023-02-20T06:24:26.625Z,7.90
2023-02-20T06:26:53.732Z,8.90
2023-02-20T06:29:20.740Z,7.90
2023-02-20T06:31:48.053Z,7.90
2023-02-20T06:34:15.391Z,7.90
2023-02-20T06:36:42.618Z,8.90
2023-02-20T06:39:11.172Z,8.00
2023-02-20T06:41:37.894Z,8.50
2023-02-20T06:44:05.642Z,8.00
2023-02-20T06:46:32.539Z,8.00
2023-02-20T06:48:59.923Z,8.10
2023-02-20T06:51:32.056Z,8.10
2023-02-20T06:53:59.856Z,8.10
2023-02-20T06:56:29.130Z,8.10
2023-02-20T06:58:56.265Z,8.20
2023-02-20T07:01:29.366Z,8.20
2023-02-20T07:03:57.681Z,8.20
2023-02-20T07:06:25.298Z,8.20
2023-02-20T07:08:52.614Z,8.20
2023-02-20T07:11:21.595Z,8.30
2023-02-20T07:13:48.352Z,8.30
2023-02-20T07:16:15.963Z,9.40
2023-02-20T07:18:42.898Z,9.50
2023-02-20T07:21:09.917Z,8.30
2023-02-20T07:23:36.597Z,8.40
2023-02-20T07:26:03.346Z,8.40
2023-02-20T07:28:30.025Z,8.40
2023-02-20T07:30:56.736Z,8.40
2023-02-20T07:33:23.458Z,9.90
2023-02-20T07:35:50.386Z,8.40
2023-02-20T07:38:17.155Z,10.00
2023-02-20T07:40:43.919Z,8.50
2023-02-20T07:43:10.746Z,9.00
2023-02-20T07:45:39.135Z,8.50
2023-02-20T07:48:06.569Z,8.50
2023-02-20T07:50:33.812Z,8.50
2023-02-20T07:53:00.605Z,8.50
2023-02-20T07:55:27.346Z,8.50
2023-02-20T07:57:58.037Z,8.60
2023-02-20T08:00:26.788Z,9.00
2023-02-20T08:02:53.995Z,8.60
2023-02-20T08:05:20.888Z,8.60
2023-02-20T08:07:49.801Z,8.60
2023-02-20T08:10:18.608Z,9.10
2023-02-20T08:12:45.952Z,8.60
2023-02-20T08:15:12.797Z,8.60
2023-02-20T08:17:46.407Z,9.50
2023-02-20T08:20:15.504Z,8.60
2023-02-20T08:22:43.515Z,9.20
2023-02-20T08:25:10.483Z,8.60
2023-02-20T08:27:38.579Z,8.60
2023-02-20T08:30:11.384Z,10.40
2023-02-20T08:32:38.205Z,8.60
2023-02-20T08:35:05.254Z,8.70
2023-02-20T08:37:31.962Z,8.70
2023-02-20T08:39:58.708Z,8.70
2023-02-20T08:42:25.383Z,8.70
2023-02-20T08:44:52.223Z,8.70
2023-02-20T08:47:23.581Z,8.70
2023-02-20T08:49:50.294Z,8.70
2023-02-20T08:52:17.349Z,8.70
2023-02-20T08:54:49.796Z,8.70
2023-02-20T08:57:17.607Z,8.80
2023-02-20T08:59:44.508Z,8.80
2023-02-20T09:02:19.145Z,8.80
2023-02-20T09:04:46.639Z,8.80
2023-02-20T09:07:14.157Z,10.20
2023-02-20T09:09:41.083Z,8.80
2023-02-20T09:12:09.236Z,8.80
2023-02-20T09:14:36.307Z,9.60
2023-02-20T09:17:03.083Z,8.80
2023-02-20T09:19:29.805Z,8.80
2023-02-20T09:21:56.919Z,8.80
2023-02-20T09:24:23.693Z,8.80
2023-02-20T09:26:50.592Z,8.80
2023-02-20T09:29:17.300Z,10.20
2023-02-20T09:31:44.066Z,8.80
2023-02-20T09:34:10.764Z,9.00
2023-02-20T09:36:37.452Z,10.00
2023-02-20T09:39:04.261Z,8.80
2023-02-20T09:41:49.006Z,8.80
2023-02-20T09:44:15.645Z,8.70
2023-02-20T09:46:46.189Z,10.20
2023-02-20T09:49:17.233Z,8.80
2023-02-20T09:51:51.461Z,8.80
2023-02-20T09:54:27.058Z,8.80
2023-02-20T09:56:58.290Z,8.80
2023-02-20T09:59:38.334Z,8.80
2023-02-20T10:02:13.012Z,8.80
2023-02-20T10:04:55.563Z,8.80
2023-02-20T10:07:49.037Z,8.90
2023-02-20T10:10:51.720Z,8.80
2023-02-20T10:13:33.599Z,8.80
2023-02-20T10:16:29.025Z,8.80
2023-02-20T10:19:11.245Z,8.80
2023-02-20T10:21:49.485Z,8.80
2023-02-20T10:24:44.458Z,8.80
2023-02-20T10:27:27.393Z,8.80
2023-02-20T10:29:56.842Z,8.80
2023-02-20T10:32:30.549Z,8.80
2023-02-20T10:35:13.755Z,8.80
2023-02-20T10:37:48.080Z,8.80
2023-02-20T10:40:24.640Z,8.80
2023-02-20T10:43:03.988Z,8.80
2023-02-20T10:45:35.603Z,8.70
2023-02-20T10:48:04.969Z,8.70
2023-02-20T10:50:54.484Z,8.70
2023-02-20T10:53:28.701Z,8.70
2023-02-20T10:56:22.849Z,9.40
2023-02-20T10:59:02.994Z,8.80
2023-02-20T11:01:30.026Z,8.80
2023-02-20T11:04:00.345Z,8.70
2023-02-20T11:06:38.233Z,8.70
2023-02-20T11:09:05.031Z,8.70
2023-02-20T11:11:41.276Z,8.70
2023-02-20T11:14:49.002Z,8.70
2023-02-20T11:17:22.616Z,8.70
2023-02-20T11:20:01.302Z,8.70
2023-02-20T11:22:49.363Z,8.70
2023-02-20T11:25:19.104Z,8.70
2023-02-20T11:27:49.941Z,8.70
2023-02-20T11:30:26.997Z,8.70
2023-02-20T11:33:01.512Z,8.70
2023-02-20T11:35:33.357Z,8.80
2023-02-20T11:38:17.248Z,8.70
2023-02-20T11:40:47.314Z,8.70
2023-02-20T11:43:13.970Z,8.70
2023-02-20T11:45:41.356Z,10.10
2023-02-20T11:48:13.746Z,8.70
2023-02-20T11:50:48.924Z,8.70
2023-02-20T11:53:29.816Z,8.70
2023-02-20T11:56:10.610Z,8.70
2023-02-20T11:58:38.275Z,8.70
2023-02-20T12:01:05.478Z,8.80
2023-02-20T12:03:35.067Z,10.20
2023-02-20T12:06:32.435Z,9.90
2023-02-20T12:09:02.172Z,8.70
2023-02-20T12:11:29.519Z,10.00
2023-02-20T12:13:59.444Z,8.70
2023-02-20T12:16:44.065Z,8.70
2023-02-20T12:19:31.344Z,8.70
2023-02-20T12:22:16.058Z,8.70
2023-02-20T12:24:55.190Z,8.60
2023-02-20T12:27:34.016Z,8.60
2023-02-20T12:30:22.349Z,8.60
2023-02-20T12:33:10.258Z,8.50
2023-02-20T12:35:54.678Z,8.50
2023-02-20T12:38:43.760Z,8.50
2023-02-20T12:41:43.553Z,8.50
2023-02-20T12:44:48.542Z,8.50
2023-02-20T12:47:37.442Z,8.40
2023-02-20T12:50:13.203Z,8.50
2023-02-20T12:53:03.604Z,8.50
2023-02-20T12:55:51.218Z,8.50
2023-02-20T12:58:17.907Z,8.50
2023-02-20T13:00:52.957Z,8.50
2023-02-20T13:03:42.823Z,8.50
2023-02-20T13:06:13.612Z,8.60
2023-02-20T13:09:05.541Z,8.60
2023-02-20T13:11:37.320Z,8.60
2023-02-20T13:14:15.932Z,8.70
2023-02-20T13:17:23.350Z,8.60
2023-02-20T13:20:06.492Z,8.60
2023-02-20T13:22:33.450Z,8.70
2023-02-20T13:25:31.141Z,8.70
2023-02-20T13:28:02.503Z,8.70
2023-02-20T13:30:29.338Z,10.10
2023-02-20T13:33:24.666Z,8.60
2023-02-20T13:35:56.635Z,8.60
2023-02-20T13:38:27.890Z,8.60
2023-02-20T13:40:58.889Z,8.60
2023-02-20T13:43:28.336Z,8.50
2023-02-20T13:46:01.131Z,8.50
2023-02-20T13:48:31.023Z,8.40
2023-02-20T13:51:19.895Z,9.50
2023-02-20T13:53:54.694Z,8.30
2023-02-20T13:56:27.728Z,8.30
2023-02-20T13:58:58.017Z,8.20
2023-02-20T14:01:25.159Z,8.20
2023-02-20T14:04:03.052Z,8.90
2023-02-20T14:06:30.257Z,8.20
2023-02-20T14:09:16.611Z,8.20
2023-02-20T14:11:43.412Z,8.10
2023-02-20T14:14:26.116Z,8.10
2023-02-20T14:17:02.615Z,8.90
2023-02-20T14:19:30.217Z,8.10
2023-02-20T14:21:57.128Z,8.20
2023-02-20T14:24:29.359Z,9.20
2023-02-20T14:26:56.925Z,8.00
2023-02-20T14:29:33.618Z,8.00
2023-02-20T14:32:03.060Z,7.90
2023-02-20T14:34:56.780Z,9.00
2023-02-20T14:37:36.693Z,7.90
2023-02-20T14:40:16.554Z,7.90
2023-02-20T14:42:47.029Z,7.90
2023-02-20T14:45:21.689Z,7.80
2023-02-20T14:47:56.434Z,9.10
2023-02-20T14:50:27.773Z,7.80
2023-02-20T14:53:18.024Z,8.80
2023-02-20T14:55:45.579Z,7.70
2023-02-20T14:58:15.420Z,7.70
2023-02-20T15:00:44.007Z,7.60
2023-02-20T15:03:30.711Z,7.60
2023-02-20T15:06:05.962Z,7.60
2023-02-20T15:08:36.039Z,7.60
2023-02-20T15:11:09.593Z,7.50
2023-02-20T15:13:41.314Z,7.50
2023-02-20T15:16:20.758Z,7.50
2023-02-20T15:18:50.111Z,7.50
2023-02-20T15:21:38.390Z,7.40
2023-02-20T15:24:27.172Z,7.40
2023-02-20T15:26:53.886Z,7.40
2023-02-20T15:29:28.569Z,7.40
2023-02-20T15:31:56.658Z,7.40
2023-02-20T15:34:35.875Z,7.30
2023-02-20T15:37:38.475Z,7.40
2023-02-20T15:40:29.265Z,7.30
2023-02-20T15:42:57.380Z,7.30
2023-02-20T15:45:29.875Z,7.20
2023-02-20T15:47:58.091Z,7.20
2023-02-20T15:50:27.400Z,7.10
2023-02-20T15:52:55.901Z,7.10
2023-02-20T15:55:23.577Z,7.10
2023-02-20T15:57:54.930Z,7.10
2023-02-20T16:00:28.023Z,7.00
2023-02-20T16:02:55.204Z,7.00
2023-02-20T16:05:22.192Z,7.00
2023-02-20T16:07:49.205Z,7.00
2023-02-20T16:10:18.393Z,7.00
2023-02-20T16:12:45.856Z,6.90
2023-02-20T16:15:17.989Z,6.90
2023-02-20T16:17:44.804Z,6.90
2023-02-20T16:20:20.931Z,6.80
2023-02-20T16:22:47.990Z,6.80
2023-02-20T16:25:17.956Z,6.80
2023-02-20T16:27:45.862Z,6.80
2023-02-20T16:30:32.227Z,6.80
2023-02-20T16:32:59.921Z,6.80
2023-02-20T16:35:27.930Z,6.70
2023-02-20T16:37:54.767Z,6.70
2023-02-20T16:40:21.510Z,7.30
2023-02-20T16:42:48.217Z,6.60
2023-02-20T16:45:18.738Z,6.60
2023-02-20T16:47:50.023Z,6.60
2023-02-20T16:50:21.014Z,6.60
2023-02-20T16:52:50.736Z,6.60
2023-02-20T16:55:23.492Z,6.60
2023-02-20T16:57:50.865Z,6.60
2023-02-20T17:00:19.757Z,6.60
2023-02-20T17:02:46.845Z,6.60
2023-02-20T17:05:14.822Z,6.60
2023-02-20T17:07:41.608Z,6.60
2023-02-20T17:10:09.040Z,6.50
2023-02-20T17:12:36.855Z,6.50
2023-02-20T17:15:06.529Z,6.50
2023-02-20T17:17:33.275Z,6.50
2023-02-20T17:20:01.019Z,6.50
2023-02-20T17:22:28.508Z,6.40
2023-02-20T17:24:56.960Z,6.50
2023-02-20T17:27:24.281Z,6.50
2023-02-20T17:29:51.325Z,6.40
2023-02-20T17:32:18.573Z,6.40
2023-02-20T17:34:45.549Z,6.50
2023-02-20T17:37:14.156Z,6.50
2023-02-20T17:39:41.074Z,6.50
2023-02-20T17:42:08.118Z,6.50
2023-02-20T17:44:35.004Z,6.50
2023-02-20T17:47:02.070Z,6.90
2023-02-20T17:49:30.203Z,6.50
2023-02-20T17:52:01.271Z,6.50
2023-02-20T17:54:29.450Z,6.50
2023-02-20T17:56:56.189Z,6.50
2023-02-20T17:59:24.033Z,6.50
2023-02-20T18:01:51.493Z,7.00
2023-02-20T18:04:21.149Z,6.50
2023-02-20T18:06:48.428Z,6.50
2023-02-20T18:09:17.808Z,6.50
2023-02-20T18:11:46.211Z,6.50
2023-02-20T18:14:13.745Z,7.10
2023-02-20T18:16:40.897Z,6.50
2023-02-20T18:19:13.758Z,6.60
2023-02-20T18:21:42.742Z,6.70
2023-02-20T18:24:10.504Z,8.10
2023-02-20T18:26:37.716Z,6.80
2023-02-20T18:29:04.951Z,6.80
2023-02-20T18:31:32.093Z,6.70
2023-02-20T18:33:58.979Z,6.70
2023-02-20T18:36:25.997Z,6.70
2023-02-20T18:38:52.937Z,6.60
2023-02-20T18:41:20.949Z,6.60
2023-02-20T18:43:49.430Z,6.60
2023-02-20T18:46:26.234Z,6.60
2023-02-20T18:48:53.020Z,6.60
2023-02-20T18:51:27.040Z,6.60
2023-02-20T18:53:53.882Z,6.60
2023-02-20T18:56:21.206Z,6.60
2023-02-20T18:58:48.152Z,6.80
2023-02-20T19:01:20.859Z,6.60
2023-02-20T19:03:50.221Z,6.60
2023-02-20T19:06:34.613Z,6.50
2023-02-20T19:09:02.059Z,6.50
2023-02-20T19:11:29.745Z,6.50
2023-02-20T19:13:56.779Z,7.90
2023-02-20T19:16:23.567Z,6.40
2023-02-20T19:18:51.187Z,6.40
2023-02-20T19:21:19.599Z,6.80
2023-02-20T19:23:47.600Z,6.40
2023-02-20T19:26:15.529Z,6.40
2023-02-20T19:28:42.663Z,6.40
2023-02-20T19:31:11.706Z,6.40
2023-02-20T19:33:38.776Z,6.40
2023-02-20T19:36:08.883Z,6.40
2023-02-20T19:38:38.292Z,6.40
2023-02-20T19:41:05.450Z,6.40
2023-02-20T19:43:32.228Z,6.40
2023-02-20T19:45:59.044Z,6.40
2023-02-20T19:48:28.025Z,6.40
2023-02-20T19:50:56.103Z,6.40
2023-02-20T19:53:23.460Z,6.40
2023-02-20T19:55:54.309Z,6.30
2023-02-20T19:58:21.687Z,7.50
2023-02-20T20:00:48.364Z,6.80
2023-02-20T20:03:15.104Z,6.30
2023-02-20T20:05:41.890Z,7.50
2023-02-20T20:08:08.657Z,7.90
2023-02-20T20:10:35.538Z,6.30
2023-02-20T20:13:02.613Z,6.30
2023-02-20T20:15:29.576Z,6.70
2023-02-20T20:18:02.164Z,7.70
2023-02-20T20:20:30.614Z,6.30
2023-02-20T20:23:01.443Z,7.40
2023-02-20T20:25:28.780Z,7.20
2023-02-20T20:27:57.917Z,6.30
2023-02-20T20:30:27.368Z,6.30
2023-02-20T20:32:54.720Z,7.60
2023-02-20T20:35:23.100Z,7.80
2023-02-20T20:37:50.009Z,6.30
2023-02-20T20:40:17.572Z,7.50
2023-02-20T20:42:44.480Z,6.20
2023-02-20T20:45:14.455Z,7.00
2023-02-20T20:47:42.897Z,6.10
2023-02-20T20:50:10.729Z,6.20
2023-02-20T20:52:37.506Z,8.00
2023-02-20T20:55:04.882Z,7.70
2023-02-20T20:57:36.558Z,6.20
2023-02-20T21:00:10.984Z,7.60
2023-02-20T21:02:37.864Z,6.10
2023-02-20T21:05:10.323Z,7.60
2023-02-20T21:07:39.031Z,6.10
2023-02-20T21:10:06.490Z,6.10
2023-02-20T21:12:33.434Z,6.10
2023-02-20T21:15:00.335Z,6.10
2023-02-20T21:17:27.359Z,6.10
2023-02-20T21:19:54.135Z,6.10
2023-02-20T21:22:21.122Z,6.00
2023-02-20T21:24:48.368Z,6.10
2023-02-20T21:27:15.334Z,6.10
2023-02-20T21:29:42.342Z,6.10
2023-02-20T21:32:09.441Z,6.10
2023-02-20T21:34:36.346Z,6.00
2023-02-20T21:37:03.175Z,7.70
2023-02-20T21:39:29.992Z,7.30
2023-02-20T21:42:15.485Z,5.90
2023-02-20T21:44:47.759Z,7.10
2023-02-20T21:47:17.014Z,7.40
2023-02-20T21:49:46.524Z,7.40
2023-02-20T21:52:18.803Z,7.90
2023-02-20T21:54:51.665Z,6.10
2023-02-20T21:57:19.141Z,6.00
2023-02-20T21:59:46.006Z,7.60
2023-02-20T22:02:18.666Z,7.90
2023-02-20T22:04:45.698Z,7.70
2023-02-20T22:07:31.782Z,7.30
2023-02-20T22:10:17.267Z,7.50
2023-02-20T22:13:02.562Z,7.70
2023-02-20T22:15:48.044Z,7.90
2023-02-20T22:18:33.420Z,7.40
2023-02-20T22:21:18.787Z,6.00
2023-02-20T22:24:04.139Z,7.80
2023-02-20T22:26:49.329Z,7.10
2023-02-20T22:29:34.691Z,7.60
2023-02-20T22:32:20.495Z,6.70
2023-02-20T22:35:11.909Z,7.70
2023-02-20T22:37:57.845Z,6.00
2023-02-20T22:40:43.087Z,6.00
2023-02-20T22:43:28.568Z,6.00
2023-02-20T22:46:13.761Z,6.00
2023-02-20T22:48:59.314Z,6.10
2023-02-20T22:51:44.754Z,7.60
2023-02-20T22:54:30.359Z,6.00
2023-02-20T22:57:16.182Z,6.10
2023-02-20T23:00:02.310Z,6.10
2023-02-20T23:02:48.646Z,6.20
2023-02-20T23:05:34.009Z,8.10
2023-02-20T23:08:19.588Z,8.00
2023-02-20T23:11:04.999Z,6.10
2023-02-20T23:13:50.765Z,8.00
2023-02-20T23:16:42.557Z,6.20
2023-02-20T23:19:29.130Z,7.90
2023-02-20T23:22:14.785Z,6.20
2023-02-20T23:25:00.006Z,6.40
2023-02-20T23:27:45.314Z,6.40
2023-02-20T23:30:31.833Z,7.80
2023-02-20T23:33:17.215Z,6.20
2023-02-20T23:36:02.536Z,6.20
2023-02-20T23:38:48.362Z,6.20
2023-02-20T23:41:33.704Z,6.20
2023-02-20T23:44:19.174Z,6.30
2023-02-20T23:47:05.926Z,6.30
2023-02-20T23:49:51.324Z,6.30
2023-02-20T23:52:36.735Z,6.30
2023-02-20T23:55:22.060Z,6.30
2023-02-20T23:58:07.545Z,6.30
